Time;durP1;ratioP1;P1;durP2;ratioP2;P2;SDS_P1;SDS_P2;PMS_P1;PMS_P2;Temp;Humidity;BMP_temperature;BMP_pressure;BME280_temperature;BME280_humidity;BME280_pressure;Samples;Min_cycle;Max_cycle;Signal;HPM_P1;HPM_P2
2022/09/16 00:00:42;;;;;;;8.30;1.60;;;11.90;99.90;;;;;;5095587;28;20550;-58
2022/09/16 00:03:08;;;;;;;6.30;1.45;;;11.90;99.90;;;;;;5094168;28;20036;-58
2022/09/16 00:05:43;;;;;;;5.40;1.33;;;11.80;99.90;;;;;;5095798;28;20373;-58
2022/09/16 00:08:09;;;;;;;4.53;1.08;;;11.80;99.90;;;;;;5094130;28;20047;-58
2022/09/16 00:10:34;;;;;;;6.35;1.88;;;11.80;99.90;;;;;;5076631;28;20480;-58
2022/09/16 00:13:00;;;;;;;7.50;1.27;;;11.70;99.90;;;;;;5094923;28;20122;-58
2022/09/16 00:15:26;;;;;;;7.43;1.58;;;11.70;99.90;;;;;;5095283;28;20389;-58
2022/09/16 00:17:51;;;;;;;7.32;1.60;;;11.70;99.90;;;;;;5058970;28;20047;-58
2022/09/16 00:20:17;;;;;;;6.97;1.23;;;11.70;99.90;;;;;;5077384;28;20437;-58
2022/09/16 00:22:43;;;;;;;3.88;1.40;;;11.70;99.90;;;;;;5077044;28;20052;-58
2022/09/16 00:25:09;;;;;;;5.93;1.35;;;11.70;99.90;;;;;;5093946;28;20384;-58
2022/09/16 00:27:34;;;;;;;7.53;1.48;;;11.70;99.90;;;;;;5095190;28;20176;-58
2022/09/16 00:30:00;;;;;;;6.03;1.48;;;11.70;99.90;;;;;;5094481;28;20130;-58
2022/09/16 00:32:25;;;;;;;6.65;1.58;;;11.70;99.90;;;;;;5075900;28;20036;-58
2022/09/16 00:34:51;;;;;;;4.30;1.25;;;11.80;99.90;;;;;;5059688;28;20074;-58
2022/09/16 00:37:17;;;;;;;5.30;1.23;;;11.80;99.90;;;;;;5095180;28;20071;-58
2022/09/16 00:39:43;;;;;;;9.52;1.80;;;11.70;99.90;;;;;;5075986;28;20067;-58
2022/09/16 00:42:10;;;;;;;6.97;1.58;;;11.70;99.90;;;;;;5059439;28;20130;-58
2022/09/16 00:44:57;;;;;;;5.55;1.10;;;11.70;99.90;;;;;;5094537;28;20051;-58
2022/09/16 00:47:40;;;;;;;7.15;1.45;;;11.70;99.90;;;;;;5059951;28;20045;-58
2022/09/16 00:50:12;;;;;;;9.32;1.83;;;11.70;99.90;;;;;;5092899;28;20492;-58
2022/09/16 00:52:40;;;;;;;5.32;1.38;;;11.70;99.90;;;;;;5093779;28;20040;-58
2022/09/16 00:55:10;;;;;;;4.60;1.30;;;11.60;99.90;;;;;;5093915;28;20046;-58
2022/09/16 00:57:37;;;;;;;5.45;1.42;;;11.60;99.90;;;;;;5077022;28;20039;-58
2022/09/16 01:00:08;;;;;;;5.20;1.30;;;11.60;99.90;;;;;;5093217;28;20366;-59
2022/09/16 01:02:34;;;;;;;4.28;1.10;;;11.60;99.90;;;;;;5076692;28;20457;-58
2022/09/16 01:05:04;;;;;;;6.55;1.60;;;11.50;99.90;;;;;;5076041;28;20075;-58
2022/09/16 01:07:42;;;;;;;7.10;1.30;;;11.50;99.90;;;;;;5092507;28;20132;-58
2022/09/16 01:10:08;;;;;;;4.57;1.10;;;11.40;99.90;;;;;;5075666;28;20123;-58
2022/09/16 01:12:35;;;;;;;4.43;1.20;;;11.40;99.90;;;;;;5094183;28;20519;-58
2022/09/16 01:15:03;;;;;;;8.30;1.67;;;11.40;99.90;;;;;;5074814;28;20374;-58
2022/09/16 01:18:07;;;;;;;6.55;1.00;;;11.30;99.90;;;;;;5094153;28;20555;-58
2022/09/16 01:21:00;;;;;;;5.53;1.10;;;11.30;99.90;;;;;;5093557;28;20043;-58
2022/09/16 01:23:52;;;;;;;5.30;1.42;;;11.20;99.90;;;;;;5094265;28;20055;-59
2022/09/16 01:26:48;;;;;;;5.47;1.15;;;11.10;99.90;;;;;;5075315;28;20108;-58
2022/09/16 01:29:32;;;;;;;;;;;11.10;99.90;;;;;;5092401;28;20050;-58
2022/09/16 01:32:36;;;;;;;6.88;0.98;;;11.00;99.90;;;;;;5075462;28;19920;-58
2022/09/16 01:35:20;;;;;;;5.15;1.23;;;11.10;99.90;;;;;;5074508;28;20040;-58
2022/09/16 01:37:51;;;;;;;5.07;1.45;;;11.00;99.90;;;;;;5093372;28;20040;-59
2022/09/16 01:40:35;;;;;;;4.32;1.13;;;11.10;99.90;;;;;;5093784;28;20039;-58
2022/09/16 01:43:28;;;;;;;7.07;1.63;;;11.20;99.90;;;;;;5091480;28;20040;-58
2022/09/16 01:45:59;;;;;;;7.43;1.73;;;11.20;99.90;;;;;;5093261;28;20069;-58
2022/09/16 01:48:49;;;;;;;15.20;2.20;;;11.20;99.90;;;;;;5074670;28;20040;-58
2022/09/16 01:51:48;;;;;;;11.52;2.15;;;11.30;99.90;;;;;;5093573;28;20438;-58
2022/09/16 01:54:28;;;;;;;11.18;3.13;;;11.40;99.90;;;;;;5093713;28;20043;-58
2022/09/16 01:57:20;;;;;;;9.27;1.92;;;11.40;99.90;;;;;;5092260;28;20070;-58
2022/09/16 02:00:03;;;;;;;5.72;1.60;;;11.40;99.90;;;;;;5092741;28;20094;-58
2022/09/16 02:03:00;;;;;;;10.70;2.00;;;11.50;99.90;;;;;;5074386;28;20051;-58
2022/09/16 02:05:40;;;;;;;10.80;2.28;;;11.60;99.90;;;;;;5074428;28;20130;-58
2022/09/16 02:08:11;;;;;;;7.38;1.92;;;11.60;99.90;;;;;;5074641;28;20050;-58
2022/09/16 02:10:45;;;;;;;11.13;2.78;;;11.60;99.90;;;;;;5091255;28;20126;-58
2022/09/16 02:13:18;;;;;;;9.00;1.83;;;11.70;99.90;;;;;;5092955;28;20123;-58
2022/09/16 02:15:48;;;;;;;9.35;2.17;;;11.70;99.90;;;;;;5093268;28;20044;-58
2022/09/16 02:18:20;;;;;;;11.65;2.50;;;11.60;99.90;;;;;;5090975;28;20061;-58
2022/09/16 02:20:47;;;;;;;12.75;2.58;;;11.60;99.90;;;;;;5092710;28;20040;-58
2022/09/16 02:23:27;;;;;;;6.70;1.83;;;11.60;99.90;;;;;;5091883;28;20059;-58
2022/09/16 02:25:54;;;;;;;9.45;1.98;;;11.60;99.90;;;;;;5092518;28;20075;-58
2022/09/16 02:28:36;;;;;;;9.60;2.50;;;11.50;99.90;;;;;;5092788;28;20105;-58
2022/09/16 02:31:06;;;;;;;15.18;2.80;;;11.50;99.90;;;;;;5091436;28;20097;-58
2022/09/16 02:33:59;;;;;;;12.15;2.38;;;11.40;99.90;;;;;;5074616;28;20119;-58
2022/09/16 02:36:26;;;;;;;8.80;2.03;;;11.40;99.90;;;;;;5074681;28;20115;-58
2022/09/16 02:39:16;;;;;;;7.95;2.17;;;11.40;99.90;;;;;;5090213;28;20565;-58
2022/09/16 02:41:42;;;;;;;7.85;1.50;;;11.30;99.90;;;;;;5092860;28;20043;-58
2022/09/16 02:44:09;;;;;;;6.35;1.50;;;11.20;99.90;;;;;;5092309;28;20051;-58
2022/09/16 02:46:54;;;;;;;9.05;2.83;;;11.20;99.90;;;;;;5091872;28;20044;-58
2022/09/16 02:49:35;;;;;;;11.73;2.90;;;11.20;99.90;;;;;;5092684;28;20039;-58
2022/09/16 02:52:05;;;;;;;6.07;1.80;;;11.10;99.90;;;;;;5073188;28;20040;-58
2022/09/16 02:54:40;;;;;;;6.47;1.50;;;11.10;99.90;;;;;;5092483;28;20557;-58
2022/09/16 02:57:05;;;;;;;8.77;1.80;;;11.10;99.90;;;;;;5091898;28;20085;-58
2022/09/16 02:59:31;;;;;;;8.90;2.03;;;11.10;99.90;;;;;;5057058;28;20039;-58
2022/09/16 03:01:58;;;;;;;13.75;2.42;;;11.10;99.90;;;;;;5091930;28;20032;-58
2022/09/16 03:04:24;;;;;;;6.55;1.48;;;11.10;99.90;;;;;;5092669;28;20118;-58
2022/09/16 03:06:50;;;;;;;8.90;1.80;;;11.00;99.90;;;;;;5091030;28;20115;-58
2022/09/16 03:09:22;;;;;;;9.25;1.90;;;11.00;99.90;;;;;;5092252;28;20040;-58
2022/09/16 03:12:06;;;;;;;8.02;1.63;;;11.00;99.90;;;;;;5073750;28;20097;-58
2022/09/16 03:15:02;;;;;;;7.15;1.88;;;10.90;99.90;;;;;;5073360;28;20040;-58
2022/09/16 03:17:58;;;;;;;8.00;1.67;;;10.90;99.90;;;;;;5092507;28;20081;-58
2022/09/16 03:20:36;;;;;;;8.82;1.83;;;10.90;99.90;;;;;;5073363;28;20388;-58
2022/09/16 03:23:29;;;;;;;6.07;1.55;;;10.80;99.90;;;;;;5073472;28;20095;-58
2022/09/16 03:26:21;;;;;;;9.20;1.60;;;10.90;99.90;;;;;;5090336;28;20047;-58
2022/09/16 03:29:00;;;;;;;8.98;2.00;;;10.90;99.90;;;;;;5089982;28;20081;-58
2022/09/16 03:31:34;;;;;;;6.55;1.50;;;10.90;99.90;;;;;;5074158;28;20500;-58
2022/09/16 03:34:19;;;;;;;12.57;2.47;;;11.00;99.90;;;;;;5091010;28;20043;-58
2022/09/16 03:37:00;;;;;;;16.85;1.95;;;11.10;99.90;;;;;;5091637;28;20507;-59
2022/09/16 03:39:25;;;;;;;8.13;2.38;;;11.10;99.90;;;;;;5091940;28;20060;-59
2022/09/16 03:41:51;;;;;;;12.93;1.90;;;11.10;99.90;;;;;;5056031;28;20094;-59
2022/09/16 03:44:17;;;;;;;10.80;2.38;;;11.10;99.90;;;;;;5092190;28;20041;-58
2022/09/16 03:46:43;;;;;;;14.85;2.65;;;11.10;99.90;;;;;;5073932;28;20054;-58
2022/09/16 03:49:09;;;;;;;10.13;2.10;;;11.10;99.90;;;;;;5089812;28;20490;-58
2022/09/16 03:51:35;;;;;;;9.15;1.83;;;11.10;99.90;;;;;;5092015;28;20044;-58
2022/09/16 03:54:01;;;;;;;10.02;1.52;;;11.00;99.90;;;;;;5073067;28;20044;-58
2022/09/16 03:56:26;;;;;;;12.77;2.75;;;11.00;99.90;;;;;;5091083;28;20040;-58
2022/09/16 03:58:52;;;;;;;6.60;2.10;;;11.00;99.90;;;;;;5073404;28;20052;-59
2022/09/16 04:01:18;;;;;;;11.68;2.47;;;11.00;99.90;;;;;;5057098;28;20048;-59
2022/09/16 04:03:51;;;;;;;11.15;2.03;;;10.90;99.90;;;;;;5089862;28;20080;-58
2022/09/16 04:06:17;;;;;;;6.63;1.80;;;10.90;99.90;;;;;;5093453;28;20466;-58
2022/09/16 04:08:43;;;;;;;10.57;2.50;;;10.90;99.90;;;;;;5076686;28;20050;-58
2022/09/16 04:11:09;;;;;;;13.10;1.85;;;10.90;99.90;;;;;;5094893;28;20044;-58
2022/09/16 04:13:35;;;;;;;5.90;1.75;;;10.80;99.90;;;;;;5094302;28;20124;-58
2022/09/16 04:16:04;;;;;;;10.80;2.30;;;10.80;99.90;;;;;;5075913;28;20083;-58
2022/09/16 04:18:31;;;;;;;8.55;1.45;;;10.80;99.90;;;;;;5060887;28;20044;-58
2022/09/16 04:20:58;;;;;;;12.30;1.92;;;10.80;99.90;;;;;;5094620;28;20047;-58
2022/09/16 04:23:25;;;;;;;10.70;1.77;;;10.70;99.90;;;;;;5076164;28;20059;-58
2022/09/16 04:25:59;;;;;;;9.15;2.50;;;10.70;99.90;;;;;;5094759;28;20035;-58
2022/09/16 04:28:26;;;;;;;8.02;1.90;;;10.70;99.90;;;;;;5095361;28;20067;-58
2022/09/16 04:30:52;;;;;;;11.68;1.95;;;10.70;99.90;;;;;;5092487;28;20052;-58
2022/09/16 04:33:18;;;;;;;3.85;1.05;;;10.60;99.90;;;;;;5094902;28;20044;-58
2022/09/16 04:35:44;;;;;;;9.40;1.83;;;10.50;99.90;;;;;;5094804;28;20036;-58
2022/09/16 04:38:09;;;;;;;6.97;1.33;;;10.40;99.90;;;;;;5094224;28;20122;-58
2022/09/16 04:40:37;;;;;;;6.82;1.55;;;10.40;99.90;;;;;;5095171;28;20533;-58
2022/09/16 04:43:03;;;;;;;6.25;1.70;;;10.30;99.90;;;;;;5094115;28;20119;-58
2022/09/16 04:45:28;;;;;;;5.63;1.50;;;10.30;99.90;;;;;;5059345;28;20127;-58
2022/09/16 04:47:56;;;;;;;7.20;1.63;;;10.30;99.90;;;;;;5076450;28;20032;-58
2022/09/16 04:50:22;;;;;;;9.52;1.60;;;10.30;99.90;;;;;;5076944;28;20046;-58
2022/09/16 04:52:48;;;;;;;11.93;1.85;;;10.30;99.90;;;;;;5075233;28;20040;-58
2022/09/16 04:55:13;;;;;;;8.85;1.88;;;10.30;99.90;;;;;;5094855;28;20032;-58
2022/09/16 04:57:40;;;;;;;9.88;1.48;;;10.30;99.90;;;;;;5076569;28;20096;-58
2022/09/16 05:00:07;;;;;;;4.88;1.35;;;10.30;99.90;;;;;;5093283;28;20063;-58
2022/09/16 05:02:32;;;;;;;8.45;1.55;;;10.20;99.90;;;;;;5076803;28;20080;-58
2022/09/16 05:04:58;;;;;;;12.55;2.33;;;10.20;99.90;;;;;;5092934;28;20067;-58
2022/09/16 05:07:24;;;;;;;7.07;1.52;;;10.20;99.90;;;;;;5094241;28;20044;-58
2022/09/16 05:09:49;;;;;;;7.60;1.60;;;10.20;99.90;;;;;;5075578;28;20127;-58
2022/09/16 05:12:15;;;;;;;8.95;1.85;;;10.30;99.90;;;;;;5093689;28;20043;-58
2022/09/16 05:14:40;;;;;;;9.45;2.22;;;10.40;99.90;;;;;;5094205;28;20484;-58
2022/09/16 05:17:06;;;;;;;12.73;2.10;;;10.60;99.90;;;;;;5074828;28;20051;-58
2022/09/16 05:19:32;;;;;;;9.70;2.17;;;10.80;99.90;;;;;;5075046;28;20043;-58
2022/09/16 05:21:57;;;;;;;8.93;1.83;;;11.00;99.90;;;;;;5093446;28;20063;-58
2022/09/16 05:24:23;;;;;;;14.93;2.33;;;11.10;99.90;;;;;;5076048;28;20052;-58
2022/09/16 05:26:49;;;;;;;9.55;1.88;;;11.20;99.90;;;;;;5074802;28;20040;-58
2022/09/16 05:29:16;;;;;;;7.57;1.80;;;11.40;99.90;;;;;;5093930;28;20040;-58
2022/09/16 05:31:43;;;;;;;8.88;1.70;;;11.40;99.90;;;;;;5094098;28;20607;-58
2022/09/16 05:34:15;;;;;;;11.27;2.63;;;11.50;99.90;;;;;;5092469;28;20115;-58
2022/09/16 05:36:46;;;;;;;9.85;2.88;;;11.50;99.90;;;;;;5075788;28;20051;-58
2022/09/16 05:39:12;;;;;;;9.32;3.63;;;11.50;99.90;;;;;;5076033;28;20385;-58
2022/09/16 05:41:38;;;;;;;8.95;2.95;;;11.50;99.90;;;;;;5074862;28;20044;-58
2022/09/16 05:44:05;;;;;;;9.70;2.25;;;11.50;99.90;;;;;;5074938;28;20044;-58
2022/09/16 05:46:31;;;;;;;9.60;2.03;;;11.40;99.90;;;;;;5093549;28;20044;-58
2022/09/16 05:48:57;;;;;;;10.30;2.28;;;11.40;99.90;;;;;;5092218;28;20042;-58
2022/09/16 05:51:24;;;;;;;8.02;1.55;;;11.30;99.90;;;;;;5093601;28;20485;-58
2022/09/16 05:53:51;;;;;;;13.05;2.22;;;11.20;99.90;;;;;;5074976;28;20052;-58
2022/09/16 05:56:20;;;;;;;6.85;1.98;;;11.20;99.90;;;;;;5074643;28;20039;-58
2022/09/16 05:58:47;;;;;;;7.97;2.03;;;11.20;99.90;;;;;;5092805;28;20044;-58
2022/09/16 06:01:18;;;;;;;9.20;1.90;;;11.10;99.90;;;;;;5091286;28;20036;-58
2022/09/16 06:03:45;;;;;;;9.00;1.77;;;11.10;99.90;;;;;;5093468;28;20035;-58
2022/09/16 06:06:24;;;;;;;7.78;1.80;;;11.20;99.90;;;;;;5093500;28;20076;-58
2022/09/16 06:08:51;;;;;;;7.18;1.92;;;11.30;99.90;;;;;;5091880;28;20040;-58
2022/09/16 06:11:17;;;;;;;12.52;2.60;;;11.40;99.90;;;;;;5093212;28;20083;-58
2022/09/16 06:13:43;;;;;;;9.32;2.17;;;11.60;99.90;;;;;;5074886;28;20076;-58
2022/09/16 06:16:09;;;;;;;7.90;2.58;;;11.70;99.90;;;;;;5073906;28;20036;-58
2022/09/16 06:18:36;;;;;;;9.40;2.45;;;11.80;99.90;;;;;;5091629;28;20040;-59
2022/09/16 06:21:08;;;;;;;7.35;1.98;;;12.00;99.90;;;;;;5091130;28;20044;-59
2022/09/16 06:23:34;;;;;;;9.50;2.10;;;12.10;99.90;;;;;;5074218;28;20052;-59
2022/09/16 06:26:10;;;;;;;8.73;2.63;;;12.10;99.90;;;;;;5091147;28;20043;-58
2022/09/16 06:28:35;;;;;;;14.57;3.00;;;12.10;99.90;;;;;;5092884;28;20044;-58
2022/09/16 06:31:10;;;;;;;12.00;2.75;;;12.10;99.90;;;;;;5091574;28;20563;-58
2022/09/16 06:33:37;;;;;;;10.98;2.03;;;12.10;99.90;;;;;;5091545;28;20044;-58
2022/09/16 06:36:17;;;;;;;16.52;3.17;;;12.20;99.90;;;;;;5074341;28;20044;-58
2022/09/16 06:38:44;;;;;;;13.52;2.50;;;12.20;99.90;;;;;;5085584;28;20468;-58
2022/09/16 06:41:11;;;;;;;9.55;2.10;;;12.20;99.90;;;;;;5054966;28;20040;-58
2022/09/16 06:43:37;;;;;;;12.48;2.30;;;12.20;99.90;;;;;;5089716;28;20367;-58
2022/09/16 06:46:08;;;;;;;6.80;2.42;;;12.20;99.90;;;;;;5090052;28;20058;-57
2022/09/16 06:48:35;;;;;;;13.05;2.28;;;12.30;99.90;;;;;;5072047;28;20435;-58
2022/09/16 06:51:03;;;;;;;7.68;2.38;;;12.30;99.90;;;;;;5087966;28;20052;-58
2022/09/16 06:53:30;;;;;;;10.48;2.47;;;12.30;99.90;;;;;;5071934;28;20059;-57
2022/09/16 06:56:00;;;;;;;11.10;2.53;;;12.30;99.90;;;;;;5071455;28;20400;-58
2022/09/16 06:58:28;;;;;;;5.82;2.00;;;12.30;99.90;;;;;;5077786;28;20089;-58
2022/09/16 07:00:55;;;;;;;12.95;2.70;;;12.40;99.90;;;;;;5068988;28;20891;-58
2022/09/16 07:03:21;;;;;;;14.00;2.92;;;12.40;99.90;;;;;;5054471;28;20082;-58
2022/09/16 07:06:03;;;;;;;8.15;2.53;;;12.50;99.90;;;;;;5070558;28;20130;-58
2022/09/16 07:08:30;;;;;;;10.20;3.78;;;12.60;99.90;;;;;;5088999;28;20127;-58
2022/09/16 07:11:02;;;;;;;12.75;2.15;;;12.70;99.90;;;;;;5091726;28;20526;-58
2022/09/16 07:13:28;;;;;;;12.02;2.00;;;12.90;99.90;;;;;;5077843;28;20043;-59
2022/09/16 07:15:53;;;;;;;13.05;2.63;;;13.10;99.90;;;;;;5051583;28;20547;-59
2022/09/16 07:18:20;;;;;;;10.07;2.00;;;13.20;99.90;;;;;;5078458;28;20056;-59
2022/09/16 07:20:45;;;;;;;10.40;2.38;;;13.20;99.90;;;;;;5070254;28;20070;-59
2022/09/16 07:23:11;;;;;;;12.30;2.42;;;13.10;99.90;;;;;;5052939;28;20731;-58
2022/09/16 07:25:36;;;;;;;13.35;3.15;;;13.10;99.90;;;;;;5065364;28;20513;-59
2022/09/16 07:28:02;;;;;;;13.85;2.92;;;13.10;99.90;;;;;;5088306;28;20035;-59
2022/09/16 07:30:29;;;;;;;11.45;2.40;;;13.10;99.90;;;;;;5089547;28;20040;-58
2022/09/16 07:32:55;;;;;;;15.82;3.60;;;13.20;99.90;;;;;;5087972;28;20040;-59
2022/09/16 07:35:21;;;;;;;16.10;3.13;;;13.30;99.90;;;;;;5089252;28;20737;-59
2022/09/16 07:37:47;;;;;;;13.05;3.70;;;13.30;99.90;;;;;;5070639;28;20122;-59
2022/09/16 07:40:13;;;;;;;14.65;2.78;;;13.40;99.90;;;;;;5088611;28;20400;-59
2022/09/16 07:42:41;;;;;;;16.83;2.53;;;13.50;99.90;;;;;;5075051;28;20062;-59
2022/09/16 07:45:10;;;;;;;9.85;2.55;;;13.50;99.90;;;;;;5055138;28;20079;-59
2022/09/16 07:47:37;;;;;;;10.75;3.13;;;13.60;99.90;;;;;;5063625;28;20048;-59
2022/09/16 07:50:03;;;;;;;13.60;2.63;;;13.60;99.90;;;;;;5088565;28;20086;-59
2022/09/16 07:52:29;;;;;;;11.38;2.20;;;13.60;99.90;;;;;;5091531;28;20084;-59
2022/09/16 07:54:55;;;;;;;15.07;2.80;;;13.60;99.90;;;;;;5078474;28;20456;-59
2022/09/16 07:57:21;;;;;;;12.55;3.58;;;13.70;99.90;;;;;;5064974;28;20489;-59
2022/09/16 07:59:47;;;;;;;12.48;2.22;;;13.90;99.90;;;;;;5092106;28;20035;-59
2022/09/16 08:02:13;;;;;;;12.43;2.92;;;13.90;99.90;;;;;;5059889;28;20043;-59
2022/09/16 08:04:39;;;;;;;8.02;2.10;;;14.00;99.90;;;;;;5089322;28;20518;-59
2022/09/16 08:07:05;;;;;;;9.80;1.80;;;14.10;99.90;;;;;;5084666;28;20042;-59
2022/09/16 08:09:31;;;;;;;8.93;2.10;;;14.20;99.90;;;;;;5092151;28;20040;-59
2022/09/16 08:11:57;;;;;;;6.97;1.77;;;14.20;99.90;;;;;;5073802;28;20040;-59
2022/09/16 08:14:23;;;;;;;7.50;1.40;;;14.20;99.90;;;;;;5069967;28;20092;-59
2022/09/16 08:16:52;;;;;;;13.95;1.75;;;14.30;99.90;;;;;;5067754;28;20041;-58
2022/09/16 08:19:19;;;;;;;14.10;2.22;;;14.30;99.90;;;;;;5088115;28;20473;-59
2022/09/16 08:21:45;;;;;;;10.77;1.70;;;14.40;99.90;;;;;;5071179;28;20061;-59
2022/09/16 08:24:11;;;;;;;6.53;2.22;;;14.40;99.90;;;;;;5069582;28;20033;-59
2022/09/16 08:26:37;;;;;;;8.68;1.55;;;14.50;99.90;;;;;;5062471;28;20115;-59
2022/09/16 08:29:02;;;;;;;5.93;1.77;;;14.60;99.90;;;;;;5059672;28;20041;-59
2022/09/16 08:31:28;;;;;;;12.98;2.40;;;14.70;99.90;;;;;;5065234;28;20036;-58
2022/09/16 08:33:55;;;;;;;9.00;1.92;;;14.80;99.90;;;;;;5069768;28;20103;-59
2022/09/16 08:36:22;;;;;;;8.77;2.28;;;14.80;99.90;;;;;;5091469;28;20080;-59
2022/09/16 08:38:51;;;;;;;8.88;2.38;;;14.70;99.90;;;;;;5054221;28;20470;-59
2022/09/16 08:41:45;;;;;;;8.95;2.00;;;14.70;99.90;;;;;;5054722;28;20470;-59
2022/09/16 08:44:30;;;;;;;10.27;2.17;;;14.60;99.90;;;;;;5071231;28;20142;-59
2022/09/16 08:47:02;;;;;;;11.70;2.63;;;14.70;99.90;;;;;;5060955;28;20370;-59
2022/09/16 08:49:39;;;;;;;7.10;1.85;;;14.80;99.90;;;;;;5056032;28;20037;-59
2022/09/16 08:52:14;;;;;;;8.20;1.77;;;14.80;99.90;;;;;;5051825;28;20059;-59
2022/09/16 08:54:48;;;;;;;10.50;2.25;;;14.90;99.90;;;;;;5062040;28;20041;-59
2022/09/16 08:57:19;;;;;;;10.98;2.58;;;15.00;97.20;;;;;;5055603;28;20033;-59
2022/09/16 08:59:50;;;;;;;5.80;1.27;;;15.00;97.50;;;;;;5067472;28;20398;-59
2022/09/16 09:02:46;;;;;;;7.10;1.65;;;15.10;97.40;;;;;;5058069;28;20045;-59
2022/09/16 09:05:48;;;;;;;9.63;1.98;;;15.20;98.40;;;;;;5068783;28;20174;-59
2022/09/16 09:08:33;;;;;;;9.77;2.13;;;15.40;99.20;;;;;;5064990;28;20057;-59
2022/09/16 09:11:21;;;;;;;11.05;1.92;;;15.50;98.70;;;;;;5062723;28;20393;-59
2022/09/16 09:13:53;;;;;;;9.88;1.70;;;15.40;98.60;;;;;;5035870;28;20077;-59
2022/09/16 09:16:21;;;;;;;6.43;1.40;;;15.30;99.40;;;;;;5069688;28;20047;-60
2022/09/16 09:19:01;;;;;;;9.75;1.90;;;15.20;99.60;;;;;;5082698;28;20041;-58
2022/09/16 09:21:53;;;;;;;10.90;1.70;;;15.20;99.90;;;;;;5053670;28;20044;-59
2022/09/16 09:24:37;;;;;;;6.57;2.08;;;15.30;99.90;;;;;;5033737;28;20053;-59
2022/09/16 09:27:12;;;;;;;7.93;2.47;;;15.40;99.00;;;;;;5067591;28;20462;-59
2022/09/16 09:30:01;;;;;;;9.48;2.10;;;15.50;98.40;;;;;;5052396;28;20036;-59
2022/09/16 09:32:38;;;;;;;12.23;2.67;;;15.50;99.10;;;;;;5049217;28;20047;-59
2022/09/16 09:35:34;;;;;;;14.65;2.35;;;15.50;98.00;;;;;;5046026;28;20067;-59
2022/09/16 09:38:21;;;;;;;8.70;1.70;;;15.60;98.60;;;;;;5052228;28;20032;-59
2022/09/16 09:40:56;;;;;;;10.07;2.13;;;15.70;99.10;;;;;;5050135;28;20040;-59
2022/09/16 09:43:37;;;;;;;8.10;1.88;;;15.80;99.80;;;;;;5052050;28;20041;-59
2022/09/16 09:46:30;;;;;;;16.63;3.15;;;15.80;99.90;;;;;;5046436;28;20114;-59
2022/09/16 09:49:25;;;;;;;8.43;2.70;;;15.60;99.40;;;;;;5052781;28;20044;-59
2022/09/16 09:52:14;;;;;;;7.40;1.93;;;15.50;97.80;;;;;;5052281;28;20488;-59
2022/09/16 09:54:44;;;;;;;7.80;1.25;;;15.50;98.80;;;;;;5064549;28;20124;-60
2022/09/16 09:57:36;;;;;;;6.63;1.52;;;15.60;97.30;;;;;;5051814;28;20043;-59
2022/09/16 10:00:20;;;;;;;8.98;2.10;;;15.70;96.70;;;;;;5050828;28;20041;-59
2022/09/16 10:02:47;;;;;;;6.18;1.35;;;15.70;96.20;;;;;;5052066;28;20043;-59
2022/09/16 10:05:23;;;;;;;9.18;1.83;;;15.70;96.60;;;;;;5058932;28;20036;-60
2022/09/16 10:07:51;;;;;;;15.13;3.83;;;15.80;96.20;;;;;;5068153;28;20033;-59
2022/09/16 10:10:23;;;;;;;10.25;2.08;;;15.80;95.40;;;;;;5067045;28;20056;-59
2022/09/16 10:12:49;;;;;;;11.27;2.30;;;15.90;96.40;;;;;;5044321;28;20071;-59
2022/09/16 10:15:27;;;;;;;13.32;2.30;;;16.00;98.00;;;;;;5051236;28;20048;-59
2022/09/16 10:17:55;;;;;;;10.05;2.85;;;15.90;99.70;;;;;;5051850;28;20154;-59
2022/09/16 10:20:30;;;;;;;10.07;2.50;;;15.70;99.90;;;;;;5050875;28;20457;-59
2022/09/16 10:23:04;;;;;;;9.77;2.10;;;15.50;99.90;;;;;;5086201;28;20055;-59
2022/09/16 10:25:31;;;;;;;9.23;2.00;;;15.40;99.90;;;;;;5081609;28;20066;-59
2022/09/16 10:28:00;;;;;;;10.95;2.30;;;15.40;99.90;;;;;;5084302;28;20036;-59
2022/09/16 10:30:32;;;;;;;8.35;1.85;;;15.40;99.70;;;;;;5054053;28;20047;-59
2022/09/16 10:33:33;;;;;;;8.80;2.05;;;15.50;99.60;;;;;;5081758;28;20169;-59
2022/09/16 10:36:16;;;;;;;7.50;1.70;;;15.50;97.70;;;;;;5067636;28;20177;-60
2022/09/16 10:38:45;;;;;;;8.45;1.92;;;15.50;99.00;;;;;;5081582;28;20036;-59
2022/09/16 10:41:20;;;;;;;5.95;1.85;;;15.60;99.40;;;;;;5071878;28;20476;-59
2022/09/16 10:43:55;;;;;;;7.22;2.13;;;15.70;99.50;;;;;;5069676;28;20511;-59
2022/09/16 10:46:21;;;;;;;8.70;1.85;;;15.80;99.50;;;;;;5074146;28;20092;-59
2022/09/16 10:48:50;;;;;;;6.25;1.95;;;16.00;99.90;;;;;;5067349;28;20134;-59
2022/09/16 10:51:21;;;;;;;9.07;2.05;;;16.10;99.70;;;;;;5084367;28;20407;-59
2022/09/16 10:53:53;;;;;;;8.95;2.53;;;16.10;98.10;;;;;;5071721;28;20043;-59
2022/09/16 10:56:34;;;;;;;8.60;2.15;;;16.00;95.60;;;;;;5063558;28;20112;-59
2022/09/16 10:59:10;;;;;;;10.52;1.90;;;15.90;95.80;;;;;;5104953;28;20071;-59
2022/09/16 11:01:45;;;;;;;7.57;1.73;;;16.10;96.50;;;;;;5086594;28;20778;-59
2022/09/16 11:04:29;;;;;;;9.90;1.90;;;16.30;97.00;;;;;;5086354;28;20105;-59
2022/09/16 11:07:18;;;;;;;8.07;1.85;;;16.50;96.40;;;;;;5067075;28;20055;-59
2022/09/16 11:09:56;;;;;;;9.13;2.13;;;16.50;96.00;;;;;;5076311;28;20119;-59
2022/09/16 11:12:58;;;;;;;12.13;2.55;;;16.40;96.70;;;;;;5070431;28;20463;-59
2022/09/16 11:15:26;;;;;;;12.70;2.40;;;16.30;96.90;;;;;;5072504;28;20083;-59
2022/09/16 11:18:32;;;;;;;7.68;2.10;;;16.20;96.40;;;;;;5092251;28;20064;-59
2022/09/16 11:21:04;;;;;;;;;;;16.10;95.40;;;;;;5084892;28;20083;-59
2022/09/16 11:23:51;;;;;;;9.18;1.80;;;16.00;95.60;;;;;;5074322;28;20309;-59
2022/09/16 11:26:26;;;;;;;6.55;1.80;;;16.10;95.30;;;;;;5055416;28;20055;-59
2022/09/16 11:29:09;;;;;;;8.15;2.03;;;16.20;95.00;;;;;;5060079;28;20058;-59
2022/09/16 11:31:58;;;;;;;9.55;3.10;;;16.20;95.50;;;;;;5085265;28;20066;-59
2022/09/16 11:34:39;;;;;;;14.30;2.55;;;16.20;95.40;;;;;;5094544;28;20063;-59
2022/09/16 11:37:13;;;;;;;6.53;1.90;;;16.20;94.80;;;;;;5085507;28;20077;-60
2022/09/16 11:39:53;;;;;;;;;;;16.10;93.20;;;;;;5071199;28;20131;-59
2022/09/16 11:42:34;;;;;;;10.52;2.67;;;16.10;93.90;;;;;;5083511;28;19920;-59
2022/09/16 11:45:04;;;;;;;12.73;2.63;;;16.20;93.70;;;;;;5075792;28;20108;-59
2022/09/16 11:47:55;;;;;;;10.27;2.55;;;16.30;94.20;;;;;;5057398;28;20040;-59
2022/09/16 11:50:21;;;;;;;13.82;3.08;;;16.40;93.50;;;;;;5076267;28;20043;-60
2022/09/16 11:52:57;;;;;;;12.95;3.00;;;16.50;94.10;;;;;;5075286;28;20037;-62
2022/09/16 11:55:44;;;;;;;13.48;3.10;;;16.70;93.70;;;;;;5075798;28;20481;-59
2022/09/16 11:58:19;;;;;;;11.07;2.92;;;16.60;94.80;;;;;;5062661;28;20533;-59
2022/09/16 12:00:46;;;;;;;;;;;16.10;96.80;;;;;;5090897;28;20041;-59
2022/09/16 12:03:19;;;;;;;15.23;2.47;;;15.80;97.30;;;;;;5057656;28;19985;-59
2022/09/16 12:05:52;;;;;;;10.32;2.55;;;15.70;97.90;;;;;;5084127;28;20045;-60
2022/09/16 12:08:30;;;;;;;11.00;2.60;;;15.70;99.60;;;;;;5080129;28;20041;-59
2022/09/16 12:11:20;;;;;;;11.52;3.25;;;15.80;99.90;;;;;;5057217;28;20052;-59
2022/09/16 12:13:52;;;;;;;13.20;2.75;;;15.90;98.30;;;;;;5074662;28;20044;-59
2022/09/16 12:16:37;;;;;;;17.92;2.92;;;16.00;96.70;;;;;;5074402;28;20458;-60
2022/09/16 12:19:12;;;;;;;11.43;3.00;;;16.10;96.30;;;;;;5056769;28;20049;-59
2022/09/16 12:21:47;;;;;;;16.40;2.92;;;16.10;96.30;;;;;;5072717;28;20060;-59
2022/09/16 12:24:44;;;;;;;18.40;4.03;;;16.10;97.70;;;;;;5095336;28;20480;-60
2022/09/16 12:27:26;;;;;;;11.57;2.88;;;16.10;98.80;;;;;;5092195;28;20051;-59
2022/09/16 12:30:01;;;;;;;13.48;3.13;;;15.90;99.20;;;;;;5092259;28;20093;-59
2022/09/16 12:32:48;;;;;;;8.35;2.75;;;15.70;99.90;;;;;;5077486;28;20071;-60
2022/09/16 12:35:36;;;;;;;8.77;2.72;;;15.50;99.90;;;;;;5094564;28;20113;-59
2022/09/16 12:38:02;;;;;;;8.25;2.33;;;15.40;99.90;;;;;;5076795;28;20040;-59
2022/09/16 12:40:49;;;;;;;6.88;1.88;;;15.30;99.90;;;;;;5072490;28;20499;-60
2022/09/16 12:43:40;;;;;;;9.55;3.47;;;15.30;99.90;;;;;;5056259;28;20045;-60
2022/09/16 12:46:33;;;;;;;11.25;2.30;;;15.30;99.90;;;;;;5073229;28;20053;-60
2022/09/16 12:49:16;;;;;;;11.90;2.20;;;15.20;99.90;;;;;;5074092;28;20110;-59
2022/09/16 12:52:18;;;;;;;11.13;2.35;;;15.20;99.90;;;;;;5090475;28;20039;-59
2022/09/16 12:55:02;;;;;;;8.23;2.63;;;15.10;99.90;;;;;;5092934;28;20044;-60
2022/09/16 12:57:45;;;;;;;7.28;1.38;;;15.20;99.90;;;;;;5084024;28;20396;-60
2022/09/16 13:00:56;;;;;;;10.20;2.42;;;15.20;99.50;;;;;;5075565;28;20071;-59
2022/09/16 13:03:26;;;;;;;6.85;1.58;;;15.30;99.00;;;;;;5055755;28;20048;-59
2022/09/16 13:05:53;;;;;;;10.55;2.63;;;15.20;98.70;;;;;;5056864;28;20464;-59
2022/09/16 13:08:23;;;;;;;10.82;2.15;;;15.20;99.10;;;;;;5056570;28;20048;-59
2022/09/16 13:10:55;;;;;;;8.95;2.40;;;15.10;99.90;;;;;;5073370;28;20044;-59
2022/09/16 13:13:30;;;;;;;9.02;2.50;;;14.90;99.90;;;;;;5056192;28;20044;-59
2022/09/16 13:15:56;;;;;;;;;;;14.70;99.90;;;;;;5074057;28;20090;-59